Time;durP1;ratioP1;P1;durP2;ratioP2;P2;SDS_P1;SDS_P2;PMS_P1;PMS_P2;Temp;Humidity;BMP_temperature;BMP_pressure;BME280_temperature;BME280_humidity;BME280_pressure;Samples;Min_cycle;Max_cycle;Signal;HPM_P1;HPM_P2
2022/09/26 00:01:56;;;;;;;26.42;20.83;;;13.20;99.90;;;;;;5086573;28;20234;-89
2022/09/26 00:04:44;;;;;;;31.33;22.33;;;13.10;99.90;;;;;;5090510;28;20733;-88
2022/09/26 00:07:33;;;;;;;30.70;21.42;;;13.10;99.90;;;;;;5071194;28;20216;-88
2022/09/26 00:10:21;;;;;;;25.95;20.45;;;13.10;99.90;;;;;;5092156;28;20924;-87
2022/09/26 00:13:11;;;;;;;27.30;20.85;;;13.10;99.90;;;;;;5089136;28;20299;-90
2022/09/26 00:16:00;;;;;;;28.73;21.05;;;13.00;99.90;;;;;;5088095;28;20220;-88
2022/09/26 00:18:49;;;;;;;25.35;20.27;;;13.00;99.90;;;;;;5073910;28;20310;-91
2022/09/26 00:21:38;;;;;;;25.90;20.23;;;13.00;99.90;;;;;;5078181;28;20475;-91
2022/09/26 00:24:26;;;;;;;26.02;19.85;;;13.00;99.90;;;;;;5092440;28;20223;-90
2022/09/26 00:27:14;;;;;;;27.00;21.80;;;13.00;99.90;;;;;;5075846;28;20352;-92
2022/09/26 00:30:05;;;;;;;27.00;20.05;;;12.90;99.90;;;;;;5091784;28;20590;-92
2022/09/26 00:32:54;;;;;;;26.98;20.08;;;12.90;99.90;;;;;;5075073;28;20220;-90
2022/09/26 00:35:49;;;;;;;26.35;20.35;;;12.90;99.90;;;;;;5075849;28;20235;-93
2022/09/26 00:38:39;;;;;;;24.40;19.65;;;12.90;99.90;;;;;;5092809;28;20841;-91
2022/09/26 00:41:27;;;;;;;27.20;20.73;;;12.90;99.90;;;;;;5078927;28;20223;-90
2022/09/26 00:44:37;;;;;;;26.48;19.50;;;12.90;99.90;;;;;;5091576;28;20314;-91
2022/09/26 00:47:43;;;;;;;24.98;19.65;;;12.90;99.90;;;;;;5090778;28;20219;-89
2022/09/26 00:50:36;;;;;;;25.20;20.00;;;12.90;99.90;;;;;;5079568;28;20234;-90
2022/09/26 00:53:31;;;;;;;29.50;20.98;;;12.90;99.90;;;;;;5106031;28;20203;-90
2022/09/26 00:56:24;;;;;;;22.90;18.20;;;12.80;99.90;;;;;;5101700;28;20675;-88
2022/09/26 00:59:18;;;;;;;26.25;19.65;;;12.80;99.90;;;;;;5077125;28;20687;-89
2022/09/26 01:02:07;;;;;;;25.77;19.20;;;12.80;99.90;;;;;;5102420;28;20230;-88
2022/09/26 01:04:59;;;;;;;25.35;19.60;;;12.80;99.90;;;;;;5104555;28;20235;-88
2022/09/26 01:07:48;;;;;;;24.15;20.20;;;12.70;99.90;;;;;;5091069;28;20517;-90
2022/09/26 01:10:38;;;;;;;27.00;19.85;;;12.80;99.90;;;;;;5062359;28;20284;-90
2022/09/26 01:13:28;;;;;;;24.55;19.27;;;12.70;99.90;;;;;;5091539;28;20367;-89
2022/09/26 01:16:18;;;;;;;31.83;19.90;;;12.70;99.90;;;;;;5088642;28;20226;-90
2022/09/26 01:19:22;;;;;;;25.77;19.10;;;12.60;99.90;;;;;;5088024;28;20812;-88
2022/09/26 01:22:38;;;;;;;26.85;19.17;;;12.60;99.90;;;;;;5090214;28;20207;-89
2022/09/26 01:25:38;;;;;;;26.83;19.30;;;12.60;99.90;;;;;;5088671;28;20216;-88
2022/09/26 01:28:38;;;;;;;26.08;18.92;;;12.60;99.90;;;;;;5089601;28;20304;-90
2022/09/26 01:31:37;;;;;;;23.98;19.00;;;12.60;99.90;;;;;;5087417;28;20690;-89
2022/09/26 01:34:35;;;;;;;26.33;19.52;;;12.60;99.90;;;;;;5089869;28;20235;-88
2022/09/26 01:37:33;;;;;;;26.83;19.23;;;12.60;99.90;;;;;;5086986;28;20321;-90
2022/09/26 01:40:30;;;;;;;30.38;19.90;;;12.50;99.90;;;;;;5074461;28;21005;-90
2022/09/26 01:43:24;;;;;;;25.48;20.90;;;12.60;99.90;;;;;;5088251;28;20816;-91
2022/09/26 01:46:23;;;;;;;28.58;21.27;;;12.40;99.90;;;;;;5076046;28;20295;-90
2022/09/26 01:49:18;;;;;;;28.40;20.73;;;12.40;99.90;;;;;;5093496;28;20222;-91
2022/09/26 01:52:15;;;;;;;27.20;20.63;;;12.30;99.90;;;;;;5104221;28;20211;-89
2022/09/26 01:55:11;;;;;;;29.35;20.20;;;12.40;99.90;;;;;;5091827;28;20294;-92
2022/09/26 01:58:04;;;;;;;26.52;20.73;;;12.40;99.90;;;;;;5082380;28;20230;-89
2022/09/26 02:00:57;;;;;;;30.52;22.27;;;12.30;99.90;;;;;;5081067;28;20224;-92
2022/09/26 02:03:48;;;;;;;29.33;21.90;;;12.30;99.90;;;;;;5077376;28;20746;-93
2022/09/26 02:06:41;;;;;;;29.02;22.30;;;12.30;99.90;;;;;;5090490;28;20235;-92
2022/09/26 02:09:34;;;;;;;27.63;21.75;;;12.30;99.90;;;;;;5090577;28;20249;-93
2022/09/26 02:12:31;;;;;;;26.80;21.48;;;12.20;99.90;;;;;;5075644;28;20230;-92
2022/09/26 02:15:22;;;;;;;26.80;21.90;;;12.20;99.90;;;;;;5090127;28;20215;-93
2022/09/26 02:18:16;;;;;;;31.55;22.92;;;12.20;99.90;;;;;;5088326;28;20902;-91
2022/09/26 02:21:12;;;;;;;25.80;21.05;;;12.30;99.90;;;;;;5091185;28;20227;-93
2022/09/26 02:24:02;;;;;;;32.40;22.10;;;12.10;99.90;;;;;;5073171;28;20333;-89
2022/09/26 02:26:51;;;;;;;30.40;21.58;;;12.10;99.90;;;;;;5074399;28;20733;-88
2022/09/26 02:29:40;;;;;;;32.38;22.85;;;12.10;99.90;;;;;;5086687;28;20234;-91
2022/09/26 02:32:32;;;;;;;27.05;21.73;;;11.90;99.90;;;;;;5069323;28;20293;-91
2022/09/26 02:38:29;;;;;;;29.88;22.52;;;12.00;99.90;;;;;;5088784;28;20243;-91
2022/09/26 02:41:39;;;;;;;27.08;21.55;;;12.00;99.90;;;;;;5075337;28;20233;-90
2022/09/26 02:44:45;;;;;;;32.28;22.20;;;12.00;99.90;;;;;;5077843;28;20251;-92
2022/09/26 02:47:51;;;;;;;30.85;21.85;;;11.90;99.90;;;;;;5092266;28;20370;-91
2022/09/26 02:50:53;;;;;;;27.40;21.92;;;12.00;99.90;;;;;;5091555;28;20245;-90
2022/09/26 02:54:03;;;;;;;30.40;23.05;;;11.80;99.90;;;;;;5073962;28;20225;-92
2022/09/26 02:57:21;;;;;;;26.73;20.67;;;11.90;99.90;;;;;;5071986;28;20246;-93
2022/09/26 03:00:16;;;;;;;27.52;22.15;;;11.90;99.90;;;;;;5087051;28;20219;-90
2022/09/26 03:03:13;;;;;;;30.00;21.67;;;11.90;99.90;;;;;;5088315;28;21746;-90
2022/09/26 03:06:05;;;;;;;26.30;21.55;;;11.80;99.90;;;;;;5073644;28;20226;-90
2022/09/26 03:08:56;;;;;;;31.50;22.60;;;11.70;99.90;;;;;;5061001;28;20223;-91
2022/09/26 03:11:47;;;;;;;29.38;22.05;;;11.70;99.90;;;;;;5088517;28;20234;-90
2022/09/26 03:14:39;;;;;;;31.02;22.08;;;11.60;99.90;;;;;;5084598;28;20748;-90
2022/09/26 03:17:29;;;;;;;28.67;21.55;;;11.50;99.90;;;;;;5073158;28;20219;-91
2022/09/26 03:20:21;;;;;;;29.63;21.98;;;11.60;99.90;;;;;;5074293;28;20219;-90
2022/09/26 03:23:12;;;;;;;29.10;21.30;;;11.50;99.90;;;;;;5073402;28;20223;-89
2022/09/26 03:26:11;;;;;;;29.38;21.92;;;11.40;99.90;;;;;;5084860;28;20310;-88
2022/09/26 03:29:10;;;;;;;25.83;21.27;;;11.40;99.90;;;;;;5073553;28;20227;-91
2022/09/26 03:32:00;;;;;;;29.65;22.52;;;11.50;99.90;;;;;;5087604;28;20222;-90
2022/09/26 03:34:49;;;;;;;26.52;21.25;;;11.30;99.90;;;;;;5073198;28;20226;-92
2022/09/26 03:37:38;;;;;;;27.42;22.42;;;11.30;99.90;;;;;;5073865;28;20226;-90
2022/09/26 03:40:27;;;;;;;27.60;20.58;;;11.20;99.90;;;;;;5088849;28;20262;-92
2022/09/26 03:43:36;;;;;;;31.52;20.70;;;11.30;99.90;;;;;;5091834;28;20306;-91
2022/09/26 03:46:24;;;;;;;27.58;20.98;;;11.40;99.90;;;;;;5076042;28;20251;-90
2022/09/26 03:49:14;;;;;;;30.20;21.38;;;11.30;99.90;;;;;;5077834;28;20308;-92
2022/09/26 03:52:03;;;;;;;25.98;21.13;;;11.20;99.90;;;;;;5075469;28;20391;-92
2022/09/26 03:54:52;;;;;;;28.50;20.52;;;11.20;99.90;;;;;;5077224;28;21043;-91
2022/09/26 03:57:41;;;;;;;27.77;20.80;;;11.30;99.90;;;;;;5076108;28;20832;-91
2022/09/26 04:00:39;;;;;;;30.05;21.40;;;11.30;99.90;;;;;;5085217;28;20221;-93
2022/09/26 04:03:28;;;;;;;29.17;21.00;;;11.20;99.90;;;;;;5093972;28;20223;-92
2022/09/26 04:06:19;;;;;;;30.17;21.40;;;11.30;99.90;;;;;;5073493;28;20226;-91
2022/09/26 04:09:10;;;;;;;29.13;20.50;;;11.20;99.90;;;;;;5090856;28;20703;-89
2022/09/26 04:12:07;;;;;;;26.65;21.00;;;11.10;99.90;;;;;;5074716;28;20223;-93
2022/09/26 04:14:59;;;;;;;24.48;19.58;;;11.00;99.90;;;;;;5074981;28;20717;-91
2022/09/26 04:17:51;;;;;;;34.00;20.80;;;11.00;99.90;;;;;;5091718;28;20308;-92
2022/09/26 04:20:39;;;;;;;23.88;20.30;;;10.90;99.90;;;;;;5076484;28;20234;-90
2022/09/26 04:23:32;;;;;;;26.17;21.27;;;10.80;99.90;;;;;;5090584;28;20223;-93
2022/09/26 04:26:22;;;;;;;25.60;19.50;;;10.80;99.90;;;;;;5089463;28;20229;-93
2022/09/26 04:29:13;;;;;;;24.25;20.17;;;10.70;99.90;;;;;;5090231;28;20299;-91
2022/09/26 04:32:20;;;;;;;24.10;19.45;;;10.50;99.90;;;;;;5090826;28;20231;-89
2022/09/26 04:35:28;;;;;;;25.13;19.60;;;10.50;99.90;;;;;;5089653;28;20215;-91
2022/09/26 04:38:17;;;;;;;24.13;20.80;;;10.40;99.90;;;;;;5072945;28;20224;-93
2022/09/26 04:41:09;;;;;;;22.65;18.45;;;10.40;99.90;;;;;;5089938;28;20227;-90
2022/09/26 04:43:59;;;;;;;25.08;20.10;;;10.30;99.90;;;;;;5070656;28;20211;-91
2022/09/26 04:46:50;;;;;;;20.85;18.25;;;10.30;99.90;;;;;;5077168;28;20353;-91
2022/09/26 04:49:41;;;;;;;24.63;19.25;;;10.10;99.90;;;;;;5075922;28;20259;-91
2022/09/26 04:52:30;;;;;;;26.58;20.48;;;10.00;99.90;;;;;;5082684;28;20223;-90
2022/09/26 04:55:18;;;;;;;27.08;20.63;;;10.00;99.90;;;;;;5087521;28;20211;-90
2022/09/26 04:58:08;;;;;;;26.90;19.95;;;10.00;99.90;;;;;;5089021;28;20242;-91
2022/09/26 05:01:02;;;;;;;25.40;20.65;;;10.10;99.90;;;;;;5093281;28;20211;-90
2022/09/26 05:04:03;;;;;;;32.70;20.55;;;10.10;99.90;;;;;;5078314;28;20227;-91
2022/09/26 05:06:56;;;;;;;39.42;22.08;;;10.00;99.90;;;;;;5077949;28;20692;-90
2022/09/26 05:09:49;;;;;;;34.65;21.73;;;9.80;99.90;;;;;;5078073;28;20247;-90
2022/09/26 05:12:40;;;;;;;29.13;21.90;;;9.60;99.90;;;;;;5092620;28;20578;-91
2022/09/26 05:15:30;;;;;;;35.95;20.83;;;9.60;99.90;;;;;;5079295;28;20827;-91
2022/09/26 05:18:19;;;;;;;29.80;21.98;;;9.70;99.90;;;;;;5078133;28;20588;-90
2022/09/26 05:21:08;;;;;;;30.48;21.92;;;9.80;99.90;;;;;;5090719;28;20228;-88
2022/09/26 05:27:06;;;;;;;30.83;21.48;;;9.80;99.90;;;;;;5076732;28;20251;-90
2022/09/26 05:29:55;;;;;;;28.88;22.05;;;10.00;99.90;;;;;;5081837;28;20227;-90
2022/09/26 05:32:47;;;;;;;28.58;21.95;;;10.10;99.90;;;;;;5078790;28;20199;-88
2022/09/26 05:35:37;;;;;;;27.70;21.25;;;10.30;99.90;;;;;;5088099;28;20228;-89
2022/09/26 05:38:25;;;;;;;25.13;20.48;;;10.40;99.90;;;;;;5082455;28;20291;-91
2022/09/26 05:41:15;;;;;;;28.90;20.90;;;10.20;99.90;;;;;;5105396;28;20205;-91
2022/09/26 05:44:04;;;;;;;25.88;20.58;;;10.30;99.90;;;;;;5096320;28;20257;-94
2022/09/26 05:46:56;;;;;;;29.92;21.10;;;10.30;99.90;;;;;;5100068;28;20203;-94
2022/09/26 05:49:48;;;;;;;27.15;19.75;;;10.40;99.90;;;;;;5086737;28;20218;-92
2022/09/26 05:52:40;;;;;;;26.85;20.45;;;10.40;99.90;;;;;;5076165;28;20223;-86
2022/09/26 05:55:37;;;;;;;30.15;20.58;;;10.10;99.90;;;;;;5090485;28;20215;-89
2022/09/26 05:58:31;;;;;;;24.13;18.30;;;10.00;99.90;;;;;;5092715;28;20272;-88
2022/09/26 06:01:39;;;;;;;26.27;19.75;;;9.90;99.90;;;;;;5060696;28;20220;-83
2022/09/26 06:04:42;;;;;;;23.38;18.65;;;10.20;99.90;;;;;;5091304;28;20873;-90
2022/09/26 06:07:53;;;;;;;26.80;21.05;;;10.20;99.90;;;;;;5087626;28;20246;-87
2022/09/26 06:11:02;;;;;;;31.70;20.88;;;10.20;99.90;;;;;;5094586;28;20609;-89
2022/09/26 06:13:51;;;;;;;33.10;20.90;;;10.20;99.90;;;;;;5080077;28;20219;-90
2022/09/26 06:16:40;;;;;;;29.40;21.17;;;10.30;99.90;;;;;;5087164;28;20235;-89
2022/09/26 06:19:28;;;;;;;28.63;21.55;;;10.50;99.90;;;;;;5080079;28;20231;-89
2022/09/26 06:22:17;;;;;;;27.95;20.48;;;10.40;99.90;;;;;;5075942;28;20226;-89
2022/09/26 06:25:08;;;;;;;28.08;20.85;;;10.50;99.90;;;;;;5073042;28;20216;-90
2022/09/26 06:27:59;;;;;;;28.25;21.13;;;10.70;99.90;;;;;;5071610;28;20280;-86
2022/09/26 06:30:49;;;;;;;28.92;20.73;;;10.70;99.90;;;;;;5070562;28;20247;-91
2022/09/26 06:34:01;;;;;;;26.85;20.70;;;10.70;99.90;;;;;;5096141;28;20246;-91
2022/09/26 06:37:15;;;;;;;28.98;20.88;;;10.80;99.90;;;;;;5094160;28;20216;-94
2022/09/26 06:40:07;;;;;;;145.43;45.90;;;10.80;99.90;;;;;;5097796;28;20231;-87
2022/09/26 06:42:57;;;;;;;30.40;21.25;;;10.90;99.90;;;;;;5091130;28;20215;-93
2022/09/26 06:45:49;;;;;;;28.45;21.42;;;11.10;99.90;;;;;;5108682;28;20224;-84
2022/09/26 06:48:43;;;;;;;27.63;20.90;;;11.00;99.90;;;;;;5095450;28;20239;-93
2022/09/26 06:51:58;;;;;;;28.50;20.65;;;11.10;99.90;;;;;;5084390;28;20224;-93
2022/09/26 06:54:46;;;;;;;28.77;21.38;;;11.20;99.90;;;;;;5091701;28;20211;-93
2022/09/26 06:57:39;;;;;;;33.72;22.88;;;11.00;99.90;;;;;;5090865;28;20227;-93
2022/09/26 07:00:29;;;;;;;31.98;22.23;;;11.10;99.90;;;;;;5092315;28;20204;-93
2022/09/26 07:03:25;;;;;;;30.17;22.23;;;11.30;99.90;;;;;;5093495;28;20227;-89
2022/09/26 07:06:25;;;;;;;27.95;20.88;;;11.20;99.90;;;;;;5071392;28;20226;-92
2022/09/26 07:09:15;;;;;;;31.08;22.60;;;11.40;99.90;;;;;;5088112;28;20230;-88
2022/09/26 07:12:13;;;;;;;31.17;22.08;;;11.40;99.90;;;;;;5086111;28;20319;-91
2022/09/26 07:15:04;;;;;;;32.05;22.08;;;11.50;99.90;;;;;;5072130;28;20215;-95
2022/09/26 07:17:56;;;;;;;26.85;21.77;;;11.40;99.90;;;;;;5071955;28;20273;-94
2022/09/26 07:21:04;;;;;;;30.90;22.75;;;11.50;99.90;;;;;;5087903;28;20406;-92
2022/09/26 07:24:12;;;;;;;31.98;21.58;;;11.60;99.90;;;;;;5080262;28;20235;-82
2022/09/26 07:27:02;;;;;;;28.92;21.55;;;11.60;99.90;;;;;;5062022;28;21058;-84
2022/09/26 07:29:51;;;;;;;32.95;21.77;;;11.80;99.90;;;;;;5074018;28;20311;-82
2022/09/26 07:32:46;;;;;;;30.23;22.17;;;11.80;99.90;;;;;;5073361;28;20749;-83
2022/09/26 07:35:52;;;;;;;33.80;23.48;;;11.90;99.90;;;;;;5060772;28;20228;-84
2022/09/26 07:38:42;;;;;;;33.47;22.25;;;12.10;99.90;;;;;;5060962;28;20215;-83
2022/09/26 07:41:31;;;;;;;32.33;23.63;;;12.30;99.90;;;;;;5057895;28;21364;-84
2022/09/26 07:44:20;;;;;;;32.33;23.30;;;12.40;99.90;;;;;;5073150;28;20246;-82
2022/09/26 07:51:02;;;;;;;33.88;23.88;;;13.20;99.90;;;;;;5074774;28;20223;-83
2022/09/26 07:54:03;;;;;;;31.52;22.98;;;13.70;99.90;;;;;;5060697;28;20716;-83
2022/09/26 07:57:11;;;;;;;30.15;22.23;;;14.10;99.90;;;;;;5067602;28;20966;-86
2022/09/26 08:00:15;;;;;;;29.80;23.17;;;14.40;99.90;;;;;;5079437;28;20348;-84
2022/09/26 08:03:13;;;;;;;27.65;22.27;;;14.70;99.90;;;;;;5061561;28;20232;-85
2022/09/26 08:06:06;;;;;;;29.67;23.30;;;15.30;99.90;;;;;;5063141;28;20220;-83
2022/09/26 08:08:57;;;;;;;33.55;23.60;;;15.60;99.90;;;;;;5074789;28;21016;-85
2022/09/26 08:12:04;;;;;;;33.58;23.83;;;16.00;99.90;;;;;;5075043;28;20791;-83
2022/09/26 08:15:19;;;;;;;31.45;22.20;;;16.30;99.90;;;;;;5054064;28;20285;-86
2022/09/26 08:18:09;;;;;;;30.30;22.50;;;16.50;99.90;;;;;;5059024;28;20227;-85
2022/09/26 08:20:57;;;;;;;32.13;24.13;;;16.60;99.90;;;;;;5072382;28;20330;-85
2022/09/26 08:23:48;;;;;;;29.67;22.13;;;16.90;99.90;;;;;;5060062;28;20286;-86
2022/09/26 08:26:54;;;;;;;32.13;22.98;;;17.30;99.90;;;;;;5077311;28;20740;-86
2022/09/26 08:29:48;;;;;;;28.92;23.58;;;17.60;99.90;;;;;;5065889;28;20278;-87
2022/09/26 08:32:36;;;;;;;30.52;23.05;;;18.00;99.90;;;;;;5075105;28;20223;-85
2022/09/26 08:35:25;;;;;;;29.80;22.90;;;18.20;99.90;;;;;;5077760;28;20231;-86
2022/09/26 08:38:34;;;;;;;31.17;23.23;;;18.60;99.90;;;;;;5080789;28;20279;-86
2022/09/26 08:41:55;;;;;;;28.35;23.40;;;18.60;99.90;;;;;;5080542;28;20220;-86
2022/09/26 08:46:28;;;;;;;27.83;22.95;;;18.60;99.90;;;;;;5066924;28;20256;-86
2022/09/26 08:49:07;;;;;;;35.05;24.13;;;18.70;99.90;;;;;;5072131;28;20226;-86
2022/09/26 08:51:58;;;;;;;30.42;22.60;;;18.80;99.90;;;;;;5063309;28;20262;-84
2022/09/26 08:54:48;;;;;;;30.00;23.83;;;18.90;99.90;;;;;;5063971;28;20762;-85
2022/09/26 08:57:42;;;;;;;32.65;25.05;;;18.90;99.90;;;;;;5078669;28;20227;-85
2022/09/26 09:00:34;;;;;;;31.25;25.52;;;18.60;99.90;;;;;;5086095;28;20224;-86
2022/09/26 09:03:34;;;;;;;31.30;25.75;;;18.00;99.90;;;;;;5073791;28;20250;-84
2022/09/26 09:06:27;;;;;;;38.38;28.05;;;17.50;99.90;;;;;;5060505;28;20226;-83
2022/09/26 09:09:17;;;;;;;33.88;27.13;;;16.90;99.90;;;;;;5060436;28;20216;-83
2022/09/26 09:12:35;;;;;;;34.42;26.55;;;16.80;99.90;;;;;;5075404;28;20778;-87
2022/09/26 09:15:57;;;;;;;40.63;27.83;;;16.60;99.90;;;;;;5076774;28;20258;-81
2022/09/26 09:18:59;;;;;;;36.95;27.95;;;16.50;99.90;;;;;;5063327;28;20230;-80
2022/09/26 09:22:43;;;;;;;32.53;26.95;;;16.40;99.90;;;;;;5077085;28;20254;-80
2022/09/26 09:25:47;;;;;;;34.10;28.05;;;16.10;99.90;;;;;;5063060;28;20242;-80
2022/09/26 09:28:47;;;;;;;34.03;27.00;;;16.00;99.90;;;;;;5057416;28;20216;-80
2022/09/26 09:31:41;;;;;;;31.83;26.73;;;16.00;99.90;;;;;;5073321;28;20230;-81
2022/09/26 09:34:51;;;;;;;32.72;27.35;;;16.10;99.90;;;;;;5077233;28;20238;-80
2022/09/26 09:38:02;;;;;;;30.70;24.70;;;16.10;99.90;;;;;;5075318;28;20223;-79
2022/09/26 09:41:10;;;;;;;32.97;25.25;;;16.20;99.90;;;;;;5061771;28;20223;-80
2022/09/26 09:44:04;;;;;;;34.78;26.23;;;16.00;99.90;;;;;;5075125;28;20258;-80
2022/09/26 09:46:54;;;;;;;32.08;25.02;;;16.00;99.90;;;;;;5075476;28;20262;-79
2022/09/26 09:49:46;;;;;;;30.98;24.38;;;16.10;99.90;;;;;;5059797;28;20228;-81
2022/09/26 09:52:56;;;;;;;31.60;24.73;;;16.30;99.90;;;;;;5062028;28;20223;-80
2022/09/26 09:55:55;;;;;;;32.00;23.58;;;16.30;99.90;;;;;;5062126;28;20357;-81
2022/09/26 09:59:12;;;;;;;29.98;22.10;;;16.30;99.90;;;;;;5070427;28;20327;-81
2022/09/26 10:02:27;;;;;;;29.73;23.20;;;16.40;99.90;;;;;;5064948;28;20861;-81
2022/09/26 10:05:35;;;;;;;26.73;22.58;;;16.50;99.90;;;;;;5065825;28;20223;-79
2022/09/26 10:08:30;;;;;;;26.15;21.00;;;16.60;99.90;;;;;;5066565;28;20243;-81
2022/09/26 10:11:30;;;;;;;24.65;19.38;;;16.60;99.90;;;;;;5079276;28;20226;-79
2022/09/26 10:14:50;;;;;;;23.58;19.15;;;16.70;99.90;;;;;;5057172;28;20310;-80
2022/09/26 10:18:21;;;;;;;26.13;19.58;;;16.70;99.90;;;;;;5077663;28;20659;-81
2022/09/26 10:21:26;;;;;;;23.92;18.95;;;16.80;99.90;;;;;;5065292;28;20227;-79
2022/09/26 10:24:26;;;;;;;26.00;19.77;;;16.80;99.90;;;;;;5064508;28;20357;-80
2022/09/26 10:27:30;;;;;;;24.92;20.10;;;16.80;99.90;;;;;;5064895;28;20239;-80
2022/09/26 10:30:27;;;;;;;24.90;19.70;;;16.90;99.90;;;;;;5080673;28;20965;-80
2022/09/26 10:33:28;;;;;;;25.20;18.13;;;17.00;99.90;;;;;;5060890;28;20223;-80
2022/09/26 10:36:32;;;;;;;22.55;16.95;;;17.30;99.90;;;;;;5075668;28;23241;-80
2022/09/26 10:42:29;;;;;;;21.58;17.15;;;17.90;99.90;;;;;;5062981;28;20230;-80
2022/09/26 10:45:26;;;;;;;17.48;15.00;;;18.30;99.90;;;;;;5061660;28;20227;-81
2022/09/26 10:48:26;;;;;;;16.42;13.32;;;18.50;99.90;;;;;;5074576;28;20254;-81
2022/09/26 10:51:41;;;;;;;18.00;13.63;;;18.40;99.90;;;;;;5078093;28;20564;-80
2022/09/26 10:54:41;;;;;;;16.02;12.88;;;18.20;99.90;;;;;;5077190;28;20242;-82
2022/09/26 10:57:36;;;;;;;15.93;12.70;;;18.10;99.90;;;;;;5061614;28;20219;-82
2022/09/26 11:00:37;;;;;;;15.75;13.38;;;18.00;99.90;;;;;;5064725;28;20345;-82
2022/09/26 11:03:39;;;;;;;15.30;12.82;;;17.90;99.90;;;;;;5063036;28;20211;-82
2022/09/26 11:06:58;;;;;;;13.23;11.82;;;17.90;99.90;;;;;;5068923;28;20223;-82
2022/09/26 11:10:00;;;;;;;14.02;12.00;;;17.80;99.90;;;;;;5060089;28;20676;-83
2022/09/26 11:13:02;;;;;;;15.88;12.85;;;17.70;99.90;;;;;;5059652;28;20227;-83
2022/09/26 11:16:00;;;;;;;14.18;11.27;;;17.60;99.90;;;;;;5079587;28;20382;-81
2022/09/26 11:18:57;;;;;;;16.42;12.23;;;17.60;99.90;;;;;;5063309;28;20242;-82
2022/09/26 11:21:54;;;;;;;14.63;10.80;;;17.60;99.90;;;;;;5077527;28;20337;-82
2022/09/26 11:24:58;;;;;;;14.27;11.70;;;17.70;99.90;;;;;;5062926;28;20730;-82
2022/09/26 11:27:50;;;;;;;13.05;10.32;;;17.70;99.90;;;;;;5062562;28;20277;-82
2022/09/26 11:30:51;;;;;;;11.02;9.43;;;17.80;99.90;;;;;;5074616;28;20219;-82
2022/09/26 11:33:44;;;;;;;12.65;10.70;;;17.70;99.90;;;;;;5076096;28;20883;-82
2022/09/26 11:37:11;;;;;;;13.05;9.60;;;17.70;99.90;;;;;;5075732;28;20226;-82
2022/09/26 11:40:22;;;;;;;12.00;9.65;;;17.70;99.90;;;;;;5077049;28;20953;-82
2022/09/26 11:43:27;;;;;;;11.15;9.85;;;17.70;99.90;;;;;;5060889;28;20219;-82
2022/09/26 11:46:38;;;;;;;17.30;10.50;;;17.70;99.90;;;;;;5076906;28;20251;-83
2022/09/26 11:50:02;;;;;;;11.93;9.85;;;17.70;99.90;;;;;;5070227;28;20272;-82
2022/09/26 11:53:06;;;;;;;12.32;9.93;;;17.80;99.90;;;;;;5074309;28;20224;-82
2022/09/26 11:56:10;;;;;;;12.40;9.38;;;17.80;99.90;;;;;;5055879;28;20261;-83
2022/09/26 11:59:12;;;;;;;11.00;8.85;;;17.80;99.90;;;;;;5074252;28;20307;-81
2022/09/26 12:02:14;;;;;;;10.98;9.02;;;17.80;99.90;;;;;;5075693;28;20230;-82
2022/09/26 12:05:24;;;;;;;10.35;8.38;;;17.80;99.90;;;;;;5078378;28;20260;-82
2022/09/26 12:08:29;;;;;;;10.20;8.68;;;17.90;99.90;;;;;;5077965;28;20684;-82
2022/09/26 12:11:32;;;;;;;10.68;8.68;;;17.90;99.90;;;;;;5077216;28;20597;-82
2022/09/26 12:14:39;;;;;;;11.57;9.38;;;17.90;99.90;;;;;;5076509;28;20633;-83
2022/09/26 12:17:50;;;;;;;15.18;9.90;;;17.90;99.90;;;;;;5078032;28;20223;-83
2022/09/26 12:20:46;;;;;;;12.93;10.38;;;17.90;99.90;;;;;;5079009;28;20227;-81
2022/09/26 12:23:39;;;;;;;11.60;9.88;;;17.90;99.90;;;;;;5077671;28;20255;-81
2022/09/26 12:26:38;;;;;;;12.80;10.75;;;17.90;99.90;;;;;;5065939;28;20280;-82
2022/09/26 12:29:38;;;;;;;16.02;11.15;;;17.90;99.90;;;;;;5074584;28;20306;-82
2022/09/26 12:32:41;;;;;;;13.35;11.85;;;18.00;99.90;;;;;;5077752;28;20220;-82
2022/09/26 12:35:44;;;;;;;14.30;11.88;;;18.10;99.90;;;;;;5065512;28;20272;-83
2022/09/26 12:39:05;;;;;;;12.73;11.02;;;18.00;99.90;;;;;;5078458;28;20211;-82
2022/09/26 12:42:10;;;;;;;12.80;11.45;;;18.10;99.90;;;;;;5074765;28;20235;-82
2022/09/26 12:45:23;;;;;;;14.50;11.75;;;18.30;99.90;;;;;;5079260;28;20251;-82
2022/09/26 12:48:24;;;;;;;14.15;11.88;;;18.20;99.90;;;;;;5081015;28;20357;-82
2022/09/26 12:51:23;;;;;;;14.43;12.57;;;18.20;99.90;;;;;;5079267;28;20242;-83
2022/09/26 12:54:31;;;;;;;16.48;13.05;;;18.20;99.90;;;;;;5080120;28;20250;-82
2022/09/26 12:57:31;;;;;;;16.25;12.18;;;18.10;99.90;;;;;;5075203;28;20226;-83
2022/09/26 13:00:21;;;;;;;13.18;11.77;;;18.00;99.90;;;;;;5080248;28;20285;-83
2022/09/26 13:03:34;;;;;;;13.10;11.75;;;18.00;99.90;;;;;;5079000;28;20373;-83
2022/09/26 13:06:44;;;;;;;14.80;11.77;;;18.20;99.90;;;;;;5075705;28;20230;-82
2022/09/26 13:10:06;;;;;;;15.32;12.38;;;18.20;99.90;;;;;;5063380;28;20271;-82
2022/09/26 13:13:37;;;;;;;14.43;12.02;;;18.30;99.90;;;;;;5076268;28;20230;-83
2022/09/26 13:16:36;;;;;;;13.20;11.68;;;18.20;99.90;;;;;;5078730;28;20223;-83
2022/09/26 13:19:33;;;;;;;16.05;12.35;;;18.10;99.90;;;;;;5062880;28;20249;-84
2022/09/26 13:22:31;;;;;;;12.48;11.18;;;18.10;99.90;;;;;;5075781;28;20792;-83
2022/09/26 13:25:25;;;;;;;13.85;11.63;;;18.00;99.90;;;;;;5074531;28;20223;-83
2022/09/26 13:28:20;;;;;;;12.48;10.70;;;18.00;99.90;;;;;;5058036;28;20590;-81
2022/09/26 13:31:15;;;;;;;15.90;11.18;;;18.00;99.90;;;;;;5077700;28;20796;-83
2022/09/26 13:34:11;;;;;;;12.68;10.73;;;18.00;99.90;;;;;;5076419;28;20794;-82
2022/09/26 13:37:03;;;;;;;10.85;9.73;;;18.00;99.90;;;;;;5074733;28;20306;-82
2022/09/26 13:39:58;;;;;;;12.85;9.65;;;17.90;99.90;;;;;;5073693;28;20227;-81
2022/09/26 13:42:55;;;;;;;11.00;9.38;;;17.90;99.90;;;;;;5077938;28;20285;-82
2022/09/26 13:45:59;;;;;;;13.00;10.07;;;17.80;99.90;;;;;;5075158;28;20227;-81
2022/09/26 13:48:59;;;;;;;12.55;9.00;;;17.90;99.90;;;;;;5063960;28;20220;-83
2022/09/26 13:51:58;;;;;;;13.13;10.57;;;17.90;99.90;;;;;;5075397;28;20857;-84
2022/09/26 13:55:00;;;;;;;15.10;9.82;;;17.90;99.90;;;;;;5077196;28;20236;-84
2022/09/26 13:58:02;;;;;;;12.60;10.02;;;17.90;99.90;;;;;;5078946;28;20252;-83
2022/09/26 14:00:53;;;;;;;13.00;10.70;;;17.90;99.90;;;;;;5078650;28;20219;-87
2022/09/26 14:03:43;;;;;;;12.05;9.73;;;18.00;99.90;;;;;;5085073;28;20261;-88
2022/09/26 14:06:32;;;;;;;12.40;10.70;;;17.90;99.90;;;;;;5068688;28;20235;-88
2022/09/26 14:09:24;;;;;;;12.15;9.38;;;18.00;99.90;;;;;;5084813;28;20223;-89
2022/09/26 14:12:30;;;;;;;11.18;9.18;;;17.90;99.90;;;;;;5081721;28;20230;-86
2022/09/26 14:15:22;;;;;;;12.05;9.18;;;18.00;99.90;;;;;;5080464;28;20227;-86
2022/09/26 14:18:30;;;;;;;10.90;9.20;;;17.90;99.90;;;;;;5080254;28;20234;-88
2022/09/26 14:21:38;;;;;;;12.43;9.90;;;17.90;99.90;;;;;;5079873;28;20314;-85
2022/09/26 14:24:31;;;;;;;13.40;11.63;;;17.80;99.90;;;;;;5064928;28;21055;-87
2022/09/26 14:27:41;;;;;;;13.80;10.65;;;17.80;99.90;;;;;;5079869;28;20219;-86
2022/09/26 14:30:32;;;;;;;12.43;10.40;;;17.80;99.90;;;;;;5078521;28;20297;-87
2022/09/26 14:33:24;;;;;;;14.27;10.20;;;17.70;99.90;;;;;;5064431;28;21038;-85
2022/09/26 14:36:34;;;;;;;11.40;9.38;;;17.70;99.90;;;;;;5076283;28;20223;-87
2022/09/26 14:39:30;;;;;;;10.57;9.48;;;17.70;99.90;;;;;;5075791;28;20234;-85
2022/09/26 14:42:24;;;;;;;11.90;8.80;;;17.60;99.90;;;;;;5080494;28;20254;-88
2022/09/26 14:45:22;;;;;;;10.40;9.20;;;17.60;99.90;;;;;;5065254;28;20257;-85
2022/09/26 14:48:19;;;;;;;10.48;9.38;;;17.60;99.90;;;;;;5080122;28;20628;-87
2022/09/26 14:51:24;;;;;;;11.57;9.23;;;17.60;99.90;;;;;;5077449;28;20346;-84
2022/09/26 14:54:22;;;;;;;11.90;9.52;;;17.50;99.90;;;;;;5078465;28;20313;-83
2022/09/26 14:57:20;;;;;;;13.25;10.38;;;17.60;99.90;;;;;;5081483;28;20223;-91
2022/09/26 15:00:39;;;;;;;12.68;10.32;;;17.50;99.90;;;;;;5099433;28;20302;-91
2022/09/26 15:03:28;;;;;;;13.23;10.30;;;17.60;99.90;;;;;;5102699;28;20223;-89
2022/09/26 15:06:19;;;;;;;13.15;10.35;;;17.60;99.90;;;;;;5092386;28;20239;-91
2022/09/26 15:09:09;;;;;;;13.32;10.18;;;17.60;99.90;;;;;;5090166;28;20227;-89
2022/09/26 15:12:00;;;;;;;10.75;9.68;;;17.60;99.90;;;;;;5087748;28;20235;-91
2022/09/26 15:14:53;;;;;;;12.45;10.77;;;17.60;99.90;;;;;;5088848;28;20597;-92
2022/09/26 15:17:49;;;;;;;13.02;10.52;;;17.60;99.90;;;;;;5088445;28;20235;-88